Time;durP1;ratioP1;P1;durP2;ratioP2;P2;SDS_P1;SDS_P2;PMS_P1;PMS_P2;Temp;Humidity;BMP_temperature;BMP_pressure;BME280_temperature;BME280_humidity;BME280_pressure;Samples;Min_cycle;Max_cycle;Signal;HPM_P1;HPM_P2
2021/08/14 00:01:59;;;;;;;9.00;3.30;;;16.30;99.90;;;;;;5024019;28;20243;-44
2021/08/14 00:04:27;;;;;;;11.07;4.00;;;16.40;99.90;;;;;;5000539;28;20204;-49
2021/08/14 00:06:54;;;;;;;12.97;3.47;;;16.30;99.90;;;;;;5021583;28;20194;-45
2021/08/14 00:09:20;;;;;;;12.57;3.73;;;16.20;99.90;;;;;;5014331;28;20223;-49
2021/08/14 00:11:47;;;;;;;11.73;3.70;;;16.20;99.90;;;;;;5023369;28;20200;-44
2021/08/14 00:14:13;;;;;;;9.57;4.10;;;16.20;99.90;;;;;;5021901;28;20234;-49
2021/08/14 00:16:40;;;;;;;13.33;3.93;;;16.10;99.90;;;;;;5022363;28;20330;-45
2021/08/14 00:19:07;;;;;;;12.20;3.40;;;16.10;99.90;;;;;;5019921;28;20227;-50
2021/08/14 00:21:35;;;;;;;8.80;3.73;;;16.10;99.90;;;;;;5010543;28;20211;-46
2021/08/14 00:24:01;;;;;;;6.93;2.97;;;16.10;99.90;;;;;;5024390;28;20196;-44
2021/08/14 00:26:28;;;;;;;9.83;3.33;;;16.00;99.90;;;;;;5020459;28;20196;-43
2021/08/14 00:28:54;;;;;;;10.23;3.00;;;16.00;99.90;;;;;;5023557;28;20311;-43
2021/08/14 00:31:21;;;;;;;9.60;3.30;;;16.00;99.90;;;;;;5019339;28;20199;-49
2021/08/14 00:33:48;;;;;;;11.07;4.00;;;16.00;99.90;;;;;;5023926;28;20223;-44
2021/08/14 00:36:15;;;;;;;9.43;3.50;;;15.90;99.90;;;;;;5003914;28;20212;-50
2021/08/14 00:38:43;;;;;;;10.47;3.47;;;16.00;99.90;;;;;;5022464;28;20447;-44
2021/08/14 00:41:09;;;;;;;11.13;3.50;;;15.90;99.90;;;;;;5022755;28;20200;-48
2021/08/14 00:43:36;;;;;;;13.50;3.37;;;15.90;99.90;;;;;;5021295;28;20984;-44
2021/08/14 00:46:03;;;;;;;12.83;3.40;;;15.80;99.90;;;;;;5015804;28;20200;-48
2021/08/14 00:48:30;;;;;;;8.30;3.73;;;15.80;99.90;;;;;;5020114;28;20279;-44
2021/08/14 00:50:57;;;;;;;13.83;4.30;;;15.70;99.90;;;;;;5007621;28;20216;-43
2021/08/14 00:53:25;;;;;;;9.60;3.57;;;15.70;99.90;;;;;;5019610;28;20212;-44
2021/08/14 00:55:54;;;;;;;11.77;3.93;;;15.70;99.90;;;;;;5023907;28;20203;-44
2021/08/14 00:58:21;;;;;;;14.40;3.90;;;15.70;99.90;;;;;;5019941;28;20250;-49
2021/08/14 01:00:48;;;;;;;9.53;3.70;;;15.70;99.90;;;;;;5023464;28;20582;-45
2021/08/14 01:03:15;;;;;;;8.20;3.73;;;15.80;99.90;;;;;;5021238;28;20200;-46
2021/08/14 01:05:44;;;;;;;8.17;3.50;;;15.80;99.90;;;;;;5022366;28;20196;-46
2021/08/14 01:08:11;;;;;;;7.23;3.20;;;15.80;99.90;;;;;;5006328;28;20204;-49
2021/08/14 01:10:37;;;;;;;7.83;3.40;;;15.80;99.90;;;;;;5020770;28;20199;-44
2021/08/14 01:13:05;;;;;;;9.17;3.70;;;15.70;99.90;;;;;;5023101;28;20196;-47
2021/08/14 01:15:32;;;;;;;10.27;3.30;;;15.70;99.90;;;;;;5020117;28;20218;-47
2021/08/14 01:17:59;;;;;;;9.23;3.80;;;15.60;99.90;;;;;;5023354;28;20196;-46
2021/08/14 01:20:26;;;;;;;11.17;3.97;;;15.60;99.90;;;;;;5019143;28;20212;-48
2021/08/14 01:22:53;;;;;;;12.20;3.97;;;15.50;99.90;;;;;;4999303;28;20211;-48
2021/08/14 01:25:20;;;;;;;12.17;3.93;;;15.50;99.90;;;;;;5019768;28;20203;-46
2021/08/14 01:27:49;;;;;;;12.97;3.53;;;15.50;99.90;;;;;;5023066;28;20199;-45
2021/08/14 01:30:15;;;;;;;7.67;3.63;;;15.50;99.90;;;;;;5017438;28;20212;-43
2021/08/14 01:32:42;;;;;;;8.97;3.70;;;15.50;99.90;;;;;;5022501;28;20685;-45
2021/08/14 01:35:09;;;;;;;12.33;3.67;;;15.50;99.90;;;;;;5019408;28;20219;-45
2021/08/14 01:37:36;;;;;;;9.13;3.87;;;15.50;99.90;;;;;;5003586;28;20213;-43
2021/08/14 01:40:04;;;;;;;12.70;3.37;;;15.50;99.90;;;;;;5012227;28;20747;-45
2021/08/14 01:42:30;;;;;;;9.53;3.50;;;15.50;99.90;;;;;;5022253;28;20192;-45
2021/08/14 01:44:58;;;;;;;13.30;3.87;;;15.50;99.90;;;;;;5027453;28;20200;-45
2021/08/14 01:47:25;;;;;;;13.67;3.83;;;15.40;99.90;;;;;;5020968;28;20184;-44
2021/08/14 01:49:51;;;;;;;10.40;3.60;;;15.50;99.90;;;;;;5022542;28;20222;-49
2021/08/14 01:52:19;;;;;;;8.07;3.70;;;15.50;99.90;;;;;;5019873;28;20188;-43
2021/08/14 01:54:47;;;;;;;9.10;3.97;;;15.50;99.90;;;;;;5003546;28;20311;-44
2021/08/14 01:57:16;;;;;;;9.63;3.80;;;15.50;99.90;;;;;;5019191;28;20188;-44
2021/08/14 01:59:43;;;;;;;11.27;3.90;;;15.60;99.90;;;;;;5022741;28;20226;-44
2021/08/14 02:02:11;;;;;;;9.77;3.43;;;15.60;99.90;;;;;;5019012;28;20196;-44
2021/08/14 02:04:38;;;;;;;11.00;3.73;;;15.60;99.90;;;;;;5023087;28;20184;-46
2021/08/14 02:07:04;;;;;;;7.60;3.63;;;15.60;99.90;;;;;;5020032;28;20200;-48
2021/08/14 02:09:31;;;;;;;9.03;3.87;;;15.60;99.90;;;;;;5002395;28;20234;-45
2021/08/14 02:11:58;;;;;;;7.73;3.50;;;15.50;99.90;;;;;;5021246;28;20680;-48
2021/08/14 02:14:24;;;;;;;8.53;3.80;;;15.50;99.90;;;;;;5020503;28;20498;-44
2021/08/14 02:16:51;;;;;;;9.67;3.63;;;15.60;99.90;;;;;;5022350;28;20196;-46
2021/08/14 02:19:19;;;;;;;10.07;3.80;;;15.60;99.90;;;;;;5019130;28;20214;-46
2021/08/14 02:21:45;;;;;;;7.40;3.60;;;15.50;99.90;;;;;;5022787;28;20196;-45
2021/08/14 02:24:12;;;;;;;12.07;4.27;;;15.50;99.90;;;;;;4999662;28;20431;-45
2021/08/14 02:26:38;;;;;;;13.67;3.90;;;15.60;99.90;;;;;;5022658;28;20196;-44
2021/08/14 02:29:05;;;;;;;5.47;3.27;;;15.60;99.90;;;;;;5018852;28;20220;-48
2021/08/14 02:31:31;;;;;;;10.67;3.63;;;15.60;99.90;;;;;;5021721;28;20195;-45
2021/08/14 02:33:58;;;;;;;10.63;3.47;;;15.70;99.90;;;;;;5021066;28;20211;-51
2021/08/14 02:36:26;;;;;;;6.33;3.17;;;15.70;99.90;;;;;;5024107;28;20184;-44
2021/08/14 02:38:52;;;;;;;8.10;3.40;;;15.70;99.90;;;;;;5009854;28;20228;-50
2021/08/14 02:41:19;;;;;;;13.53;3.90;;;15.60;99.90;;;;;;5022904;28;20204;-45
2021/08/14 02:43:46;;;;;;;8.57;3.43;;;15.60;99.90;;;;;;5026080;28;20208;-44
2021/08/14 02:46:12;;;;;;;7.80;3.27;;;15.60;99.90;;;;;;5022028;28;20196;-45
2021/08/14 02:48:39;;;;;;;8.07;3.23;;;15.50;99.90;;;;;;5025862;28;20230;-44
2021/08/14 02:51:05;;;;;;;7.73;3.20;;;15.50;99.90;;;;;;5022869;28;20219;-46
2021/08/14 02:53:33;;;;;;;7.57;3.03;;;15.50;99.90;;;;;;5025403;28;20188;-44
2021/08/14 02:56:00;;;;;;;6.33;3.00;;;15.40;99.90;;;;;;5004226;28;20227;-48
2021/08/14 02:58:27;;;;;;;7.47;3.40;;;15.40;99.90;;;;;;5023963;28;20208;-45
2021/08/14 03:00:54;;;;;;;6.80;3.27;;;15.40;99.90;;;;;;5024775;28;20214;-49
2021/08/14 03:03:20;;;;;;;11.80;3.30;;;15.40;99.90;;;;;;5022652;28;20196;-47
2021/08/14 03:05:47;;;;;;;8.40;3.47;;;15.30;99.90;;;;;;5025817;28;20668;-44
2021/08/14 03:08:14;;;;;;;6.20;3.37;;;15.30;99.90;;;;;;5021795;28;20463;-44
2021/08/14 03:10:42;;;;;;;10.90;4.27;;;14.80;99.90;;;;;;5006116;28;20209;-44
2021/08/14 03:13:10;;;;;;;9.23;3.43;;;15.30;99.90;;;;;;5021253;28;20193;-47
2021/08/14 03:15:36;;;;;;;10.37;3.57;;;15.30;99.90;;;;;;5025353;28;20216;-44
2021/08/14 03:18:03;;;;;;;4.93;3.07;;;15.30;99.90;;;;;;5022620;28;20200;-46
2021/08/14 03:20:30;;;;;;;5.53;3.30;;;15.20;99.90;;;;;;5006821;28;20577;-44
2021/08/14 03:22:57;;;;;;;8.13;3.37;;;15.20;99.90;;;;;;5024049;28;20184;-45
2021/08/14 03:25:23;;;;;;;4.50;2.87;;;15.20;99.90;;;;;;5023294;28;20196;-44
2021/08/14 03:27:52;;;;;;;8.57;3.30;;;15.20;99.90;;;;;;5009291;28;20208;-46
2021/08/14 03:30:18;;;;;;;6.00;3.23;;;15.30;99.90;;;;;;5020860;28;21095;-45
2021/08/14 03:32:46;;;;;;;7.80;3.17;;;15.20;99.90;;;;;;5014879;28;20307;-49
2021/08/14 03:35:14;;;;;;;9.70;3.80;;;15.20;99.90;;;;;;5024900;28;20223;-43
2021/08/14 03:37:41;;;;;;;9.17;3.50;;;15.20;99.90;;;;;;5022544;28;20207;-49
2021/08/14 03:40:09;;;;;;;9.20;3.37;;;15.20;99.90;;;;;;5023098;28;20212;-45
2021/08/14 03:42:36;;;;;;;12.43;3.17;;;15.20;99.90;;;;;;5002509;28;20204;-48
2021/08/14 03:45:05;;;;;;;6.17;3.10;;;15.30;99.90;;;;;;5022676;28;20184;-43
2021/08/14 03:47:32;;;;;;;8.40;3.13;;;15.30;99.90;;;;;;5023794;28;20204;-47
2021/08/14 03:49:58;;;;;;;9.03;3.87;;;15.30;99.90;;;;;;5022130;28;20928;-44
2021/08/14 03:52:25;;;;;;;6.90;3.13;;;15.20;99.90;;;;;;5024890;28;20184;-43
2021/08/14 03:54:51;;;;;;;10.63;3.97;;;15.30;99.90;;;;;;5020707;28;20399;-42
2021/08/14 03:57:18;;;;;;;7.90;3.70;;;15.30;99.90;;;;;;5024463;28;20192;-43
2021/08/14 03:59:45;;;;;;;14.27;4.13;;;15.30;99.90;;;;;;4998385;28;20243;-47
2021/08/14 04:02:13;;;;;;;6.27;3.20;;;15.30;99.90;;;;;;5016812;28;20586;-45
2021/08/14 04:04:39;;;;;;;6.07;3.10;;;15.30;99.90;;;;;;5022561;28;20196;-46
2021/08/14 04:07:06;;;;;;;9.20;3.80;;;15.30;99.90;;;;;;5018384;28;20219;-45
2021/08/14 04:09:33;;;;;;;7.90;3.30;;;15.30;99.90;;;;;;5023324;28;20215;-46
2021/08/14 04:11:59;;;;;;;11.37;3.57;;;15.30;99.90;;;;;;5022125;28;20191;-44
2021/08/14 04:14:26;;;;;;;6.20;3.60;;;15.30;99.90;;;;;;5008276;28;20212;-43
2021/08/14 04:16:52;;;;;;;9.43;3.70;;;15.30;99.90;;;;;;5020194;28;20267;-44
2021/08/14 04:19:20;;;;;;;8.40;3.73;;;15.30;99.90;;;;;;5024617;28;20577;-43
2021/08/14 04:21:47;;;;;;;10.03;3.67;;;15.30;99.90;;;;;;5015779;28;20649;-46
2021/08/14 04:24:14;;;;;;;7.70;3.93;;;15.30;99.90;;;;;;5004668;28;20193;-45
2021/08/14 04:26:41;;;;;;;9.77;2.97;;;15.30;99.90;;;;;;5002137;28;20197;-49
2021/08/14 04:29:07;;;;;;;8.33;3.30;;;15.40;99.90;;;;;;5002514;28;20216;-49
2021/08/14 04:31:34;;;;;;;6.30;3.50;;;15.30;99.90;;;;;;5004935;28;20219;-45
2021/08/14 04:34:01;;;;;;;8.13;3.63;;;15.40;99.90;;;;;;5021194;28;20191;-45
2021/08/14 04:36:29;;;;;;;6.97;3.73;;;15.40;99.90;;;;;;5024117;28;20216;-44
2021/08/14 04:38:56;;;;;;;10.90;4.17;;;15.40;99.90;;;;;;5015480;28;20216;-46
2021/08/14 04:41:23;;;;;;;8.70;4.20;;;15.40;99.90;;;;;;5024123;28;20207;-44
2021/08/14 04:43:50;;;;;;;8.63;3.73;;;15.40;99.90;;;;;;5019848;28;20777;-44
2021/08/14 04:46:16;;;;;;;8.80;3.27;;;15.50;99.90;;;;;;5008263;28;20219;-43
2021/08/14 04:48:43;;;;;;;7.03;3.43;;;15.50;99.90;;;;;;5020307;28;20724;-45
2021/08/14 04:51:09;;;;;;;11.93;3.80;;;15.50;99.90;;;;;;5023071;28;20299;-49
2021/08/14 04:53:37;;;;;;;12.43;3.73;;;15.50;99.90;;;;;;5016888;28;20219;-51
2021/08/14 04:56:04;;;;;;;8.87;3.97;;;15.50;99.90;;;;;;5021796;28;20219;-48
2021/08/14 04:58:31;;;;;;;10.10;3.77;;;15.60;99.90;;;;;;5022501;28;20208;-47
2021/08/14 05:00:57;;;;;;;11.63;3.47;;;15.60;99.90;;;;;;5005238;28;20196;-43
2021/08/14 05:03:24;;;;;;;8.60;3.30;;;15.60;99.90;;;;;;5023091;28;20196;-45
2021/08/14 05:05:50;;;;;;;10.33;4.10;;;15.60;99.90;;;;;;5019617;28;20848;-43
2021/08/14 05:08:17;;;;;;;7.67;3.93;;;15.60;99.90;;;;;;5009247;28;20218;-47
2021/08/14 05:10:45;;;;;;;16.80;4.33;;;15.70;99.90;;;;;;5022159;28;20739;-45
2021/08/14 05:13:12;;;;;;;8.67;3.40;;;15.80;99.90;;;;;;5016061;28;20203;-45
2021/08/14 05:15:38;;;;;;;7.20;3.30;;;15.70;99.90;;;;;;5005545;28;20215;-43
2021/08/14 05:18:05;;;;;;;12.33;4.23;;;15.80;99.90;;;;;;5018095;28;20200;-46
2021/08/14 05:20:33;;;;;;;9.90;4.27;;;15.80;99.90;;;;;;5012770;28;20369;-44
2021/08/14 05:22:59;;;;;;;6.93;3.83;;;15.90;99.90;;;;;;5019073;28;20203;-44
2021/08/14 05:25:28;;;;;;;9.13;4.33;;;15.90;99.90;;;;;;5010582;28;20204;-43
2021/08/14 05:27:56;;;;;;;12.70;3.70;;;15.90;99.90;;;;;;5018041;28;20219;-45
2021/08/14 05:30:22;;;;;;;14.23;3.83;;;16.00;99.90;;;;;;5000674;28;20235;-43
2021/08/14 05:32:50;;;;;;;10.77;4.13;;;16.00;99.90;;;;;;5022916;28;20546;-43
2021/08/14 05:35:17;;;;;;;8.43;3.87;;;16.00;99.90;;;;;;5019182;28;20215;-45
2021/08/14 05:37:43;;;;;;;11.27;4.47;;;16.00;99.90;;;;;;5018507;28;20574;-48
2021/08/14 05:40:11;;;;;;;12.13;4.00;;;16.10;99.90;;;;;;5014959;28;20235;-47
2021/08/14 05:42:37;;;;;;;12.37;4.40;;;16.10;99.90;;;;;;5014363;28;20215;-44
2021/08/14 05:45:07;;;;;;;9.37;4.00;;;16.10;99.90;;;;;;5018365;28;20885;-43
2021/08/14 05:47:34;;;;;;;6.80;3.47;;;16.20;99.90;;;;;;5006204;28;20571;-46
2021/08/14 05:50:01;;;;;;;10.40;4.17;;;16.20;99.90;;;;;;5018264;28;20216;-45
2021/08/14 05:52:27;;;;;;;13.60;3.97;;;16.20;99.90;;;;;;5014555;28;20219;-45
2021/08/14 05:54:54;;;;;;;11.43;4.60;;;16.30;99.90;;;;;;5010357;28;20212;-48
2021/08/14 05:57:20;;;;;;;8.00;3.43;;;16.30;99.90;;;;;;5015682;28;20657;-47
2021/08/14 05:59:47;;;;;;;9.83;3.53;;;16.40;99.90;;;;;;5015517;28;20278;-46
2021/08/14 06:02:15;;;;;;;12.07;4.60;;;16.40;99.90;;;;;;5005525;28;20214;-44
2021/08/14 06:04:41;;;;;;;10.37;3.90;;;16.50;99.90;;;;;;5023571;28;20666;-45
2021/08/14 06:07:08;;;;;;;8.40;3.60;;;16.50;99.90;;;;;;5019782;28;20191;-45
2021/08/14 06:09:34;;;;;;;12.33;4.07;;;16.50;99.90;;;;;;5024703;28;20215;-47
2021/08/14 06:12:01;;;;;;;6.07;3.30;;;16.60;99.90;;;;;;5018706;28;20203;-43
2021/08/14 06:14:28;;;;;;;11.00;3.90;;;16.60;99.90;;;;;;5027214;28;20208;-44
2021/08/14 06:16:54;;;;;;;10.57;3.27;;;16.70;99.90;;;;;;5013624;28;20220;-45
2021/08/14 06:19:22;;;;;;;14.03;3.50;;;16.70;99.90;;;;;;5023598;28;20246;-45
2021/08/14 06:21:49;;;;;;;9.57;3.80;;;16.80;99.90;;;;;;5019014;28;20223;-48
2021/08/14 06:24:15;;;;;;;12.03;3.70;;;16.80;99.90;;;;;;5025884;28;20196;-44
2021/08/14 06:26:42;;;;;;;11.63;3.50;;;16.90;99.90;;;;;;5022628;28;20200;-44
2021/08/14 06:29:08;;;;;;;12.47;4.10;;;16.90;99.90;;;;;;5018339;28;20223;-47
2021/08/14 06:31:35;;;;;;;9.23;3.20;;;17.00;99.90;;;;;;5026713;28;20244;-44
2021/08/14 06:34:02;;;;;;;6.60;2.90;;;17.10;99.90;;;;;;5007067;28;20283;-46
2021/08/14 06:36:30;;;;;;;12.40;3.83;;;17.10;99.90;;;;;;5026829;28;20208;-47
2021/08/14 06:38:57;;;;;;;11.07;3.20;;;17.20;99.90;;;;;;5023699;28;20212;-45
2021/08/14 06:41:24;;;;;;;8.67;3.60;;;17.20;99.90;;;;;;5026549;28;20249;-44
2021/08/14 06:43:50;;;;;;;9.97;3.73;;;17.30;99.90;;;;;;5018939;28;20199;-47
2021/08/14 06:46:19;;;;;;;7.23;3.60;;;17.40;99.90;;;;;;5025870;28;20192;-47
2021/08/14 06:48:45;;;;;;;14.10;4.40;;;17.40;99.90;;;;;;5020817;28;20215;-46
2021/08/14 06:51:13;;;;;;;6.47;2.90;;;17.50;99.90;;;;;;5015142;28;20921;-45
2021/08/14 06:53:42;;;;;;;7.73;3.00;;;17.60;99.90;;;;;;5027100;28;20206;-47
2021/08/14 06:56:08;;;;;;;8.40;3.77;;;17.70;99.90;;;;;;5024140;28;20215;-50
2021/08/14 06:58:35;;;;;;;8.63;2.93;;;17.70;99.90;;;;;;5021358;28;20222;-46
2021/08/14 07:01:01;;;;;;;11.80;4.27;;;17.80;99.90;;;;;;5023151;28;20184;-48
2021/08/14 07:03:28;;;;;;;7.87;3.80;;;17.80;99.90;;;;;;5026306;28;20658;-46
2021/08/14 07:05:55;;;;;;;9.03;3.20;;;17.90;99.90;;;;;;4993057;28;20207;-47
2021/08/14 07:08:21;;;;;;;11.10;3.23;;;17.90;99.90;;;;;;5023371;28;20220;-52
2021/08/14 07:10:49;;;;;;;6.77;2.60;;;18.00;99.90;;;;;;5016178;28;20196;-45
2021/08/14 07:13:16;;;;;;;8.60;3.20;;;18.10;99.90;;;;;;5022711;28;20211;-49
2021/08/14 07:15:42;;;;;;;10.70;3.27;;;18.10;99.90;;;;;;5010083;28;20235;-45
2021/08/14 07:18:09;;;;;;;7.30;3.30;;;18.10;99.90;;;;;;5025755;28;20210;-44
2021/08/14 07:20:36;;;;;;;9.80;3.07;;;18.10;99.90;;;;;;5006610;28;20381;-46
2021/08/14 07:23:03;;;;;;;8.43;2.97;;;18.20;99.90;;;;;;5020920;28;20196;-49
2021/08/14 07:25:29;;;;;;;11.90;3.57;;;18.30;99.90;;;;;;5018888;28;20200;-45
2021/08/14 07:27:57;;;;;;;8.27;2.90;;;18.30;99.90;;;;;;5021882;28;20281;-45
2021/08/14 07:30:24;;;;;;;11.00;3.13;;;18.40;99.90;;;;;;5018911;28;20319;-46
2021/08/14 07:32:50;;;;;;;9.13;2.43;;;18.50;99.90;;;;;;5019587;28;20191;-46
2021/08/14 07:35:17;;;;;;;5.20;2.43;;;18.60;99.90;;;;;;5026210;28;20549;-48
2021/08/14 07:37:48;;;;;;;8.03;3.03;;;18.60;99.90;;;;;;5008623;28;20211;-45
2021/08/14 07:40:18;;;;;;;6.20;2.50;;;18.70;99.90;;;;;;5025353;28;20216;-46
2021/08/14 07:42:45;;;;;;;6.57;2.93;;;18.80;99.90;;;;;;5020092;28;20207;-45
2021/08/14 07:45:15;;;;;;;6.90;2.67;;;18.80;99.90;;;;;;5016277;28;20573;-45
2021/08/14 07:47:45;;;;;;;7.00;3.00;;;18.90;99.90;;;;;;5022369;28;20234;-45
2021/08/14 07:50:12;;;;;;;9.17;3.07;;;18.90;99.90;;;;;;5026275;28;20220;-45
2021/08/14 07:52:38;;;;;;;10.83;2.70;;;19.00;99.90;;;;;;4999829;28;20211;-49
2021/08/14 07:55:06;;;;;;;11.10;3.20;;;19.10;99.90;;;;;;5026473;28;20211;-45
2021/08/14 07:57:33;;;;;;;6.07;2.70;;;19.20;99.90;;;;;;5009862;28;20814;-46
2021/08/14 08:00:00;;;;;;;7.27;3.47;;;19.30;99.90;;;;;;5020694;28;20235;-45
2021/08/14 08:02:28;;;;;;;6.37;2.73;;;19.40;99.90;;;;;;5011912;28;20684;-47
2021/08/14 08:04:55;;;;;;;8.00;3.20;;;19.50;99.90;;;;;;5027063;28;20576;-46
2021/08/14 08:07:21;;;;;;;9.13;2.93;;;19.50;99.90;;;;;;5017135;28;20557;-45
2021/08/14 08:09:48;;;;;;;11.23;3.17;;;19.70;99.90;;;;;;5017630;28;20226;-43
2021/08/14 08:12:14;;;;;;;16.33;3.73;;;19.70;99.90;;;;;;5018833;28;20200;-46
2021/08/14 08:14:41;;;;;;;8.47;2.80;;;19.80;99.90;;;;;;5014061;28;20204;-48
2021/08/14 08:17:08;;;;;;;8.93;3.20;;;20.00;99.90;;;;;;5018061;28;20216;-48
2021/08/14 08:19:36;;;;;;;11.73;3.07;;;20.00;99.90;;;;;;5012014;28;20224;-46
2021/08/14 08:22:02;;;;;;;10.90;3.67;;;20.10;99.90;;;;;;5018514;28;20200;-46
2021/08/14 08:24:30;;;;;;;8.07;3.40;;;20.30;99.90;;;;;;5001467;28;20203;-47
2021/08/14 08:26:57;;;;;;;8.80;3.10;;;20.40;99.90;;;;;;5015371;28;20685;-46
2021/08/14 08:29:24;;;;;;;7.67;3.13;;;20.50;99.90;;;;;;5012393;28;20223;-47
2021/08/14 08:31:51;;;;;;;8.33;2.70;;;20.40;99.90;;;;;;5016459;28;20208;-43
2021/08/14 08:34:19;;;;;;;11.83;3.37;;;20.40;99.90;;;;;;5021977;28;20640;-46
2021/08/14 08:36:47;;;;;;;9.60;3.43;;;20.40;99.90;;;;;;5020979;28;20227;-44
2021/08/14 08:39:13;;;;;;;10.33;3.00;;;20.40;99.90;;;;;;5022162;28;20693;-45
2021/08/14 08:41:40;;;;;;;7.33;2.73;;;20.50;99.90;;;;;;5007281;28;20215;-48
2021/08/14 08:44:07;;;;;;;10.50;3.27;;;20.60;99.90;;;;;;5019870;28;20562;-47
2021/08/14 08:46:34;;;;;;;11.87;3.23;;;20.70;99.90;;;;;;5019916;28;20195;-45
2021/08/14 08:49:02;;;;;;;8.97;3.37;;;20.70;99.90;;;;;;5016855;28;20231;-45
2021/08/14 08:51:31;;;;;;;9.17;2.80;;;20.70;99.90;;;;;;5016368;28;20208;-47
2021/08/14 08:53:59;;;;;;;10.23;4.23;;;20.70;99.90;;;;;;5023909;28;20203;-45
2021/08/14 08:56:26;;;;;;;9.13;3.03;;;20.70;99.90;;;;;;5005946;28;20238;-47
2021/08/14 08:58:52;;;;;;;8.90;3.80;;;20.70;99.90;;;;;;5018158;28;20230;-46
2021/08/14 09:01:19;;;;;;;8.23;3.00;;;20.70;99.90;;;;;;5021928;28;20196;-50
2021/08/14 09:03:46;;;;;;;8.80;3.27;;;20.80;99.90;;;;;;5016327;28;20257;-45
2021/08/14 09:06:13;;;;;;;9.73;3.13;;;20.80;99.90;;;;;;5023653;28;20196;-46
2021/08/14 09:08:39;;;;;;;8.40;3.47;;;20.80;99.90;;;;;;5020145;28;20212;-48
2021/08/14 09:11:10;;;;;;;6.03;2.97;;;20.90;99.90;;;;;;5009151;28;20300;-46
2021/08/14 09:13:39;;;;;;;6.93;3.10;;;20.90;99.90;;;;;;5018411;28;20232;-45
2021/08/14 09:16:18;;;;;;;7.90;3.00;;;20.90;99.90;;;;;;5018983;28;20262;-48
2021/08/14 09:18:54;;;;;;;7.90;3.00;;;21.00;99.90;;;;;;5013367;28;20219;-49
2021/08/14 09:21:34;;;;;;;7.77;3.40;;;21.00;99.90;;;;;;5019988;28;20210;-51
2021/08/14 09:24:04;;;;;;;4.43;2.53;;;21.00;99.90;;;;;;5018597;28;20200;-48
2021/08/14 09:26:54;;;;;;;9.43;3.03;;;21.10;99.90;;;;;;5003400;28;20204;-50
2021/08/14 09:29:30;;;;;;;7.20;3.20;;;21.20;99.90;;;;;;5013144;28;20219;-47
2021/08/14 09:31:56;;;;;;;7.80;3.17;;;21.40;99.90;;;;;;5022747;28;20554;-45
2021/08/14 09:34:26;;;;;;;6.27;2.90;;;21.50;99.90;;;;;;5016195;28;20204;-47
2021/08/14 09:36:59;;;;;;;9.17;3.20;;;21.50;99.90;;;;;;5022082;28;20220;-45
2021/08/14 09:39:26;;;;;;;9.70;3.00;;;21.50;99.90;;;;;;5020524;28;20211;-46
2021/08/14 09:42:03;;;;;;;8.73;3.00;;;21.50;99.90;;;;;;5019601;28;20204;-47
2021/08/14 09:44:29;;;;;;;9.83;2.67;;;21.50;99.90;;;;;;5003250;28;20218;-48
2021/08/14 09:46:56;;;;;;;8.47;3.33;;;21.50;99.90;;;;;;5026142;28;20196;-46
2021/08/14 09:49:24;;;;;;;9.60;3.37;;;21.60;99.90;;;;;;5018820;28;20238;-47
2021/08/14 09:51:50;;;;;;;7.87;3.50;;;21.60;99.90;;;;;;5024228;28;20196;-46
2021/08/14 09:54:17;;;;;;;10.15;3.30;;;21.60;99.90;;;;;;5026284;28;20192;-47
2021/08/14 09:56:44;;;;;;;9.90;3.00;;;21.50;99.90;;;;;;5015923;28;21030;-46
2021/08/14 09:59:13;;;;;;;7.73;3.00;;;21.50;99.90;;;;;;5006265;28;20219;-48
2021/08/14 10:01:42;;;;;;;6.13;2.80;;;21.40;99.90;;;;;;5018562;28;20266;-46
2021/08/14 10:04:09;;;;;;;9.77;3.50;;;21.40;99.90;;;;;;5010578;28;20283;-45
2021/08/14 10:06:37;;;;;;;8.77;3.60;;;21.40;99.90;;;;;;5008559;28;20251;-48
2021/08/14 10:09:04;;;;;;;10.33;3.50;;;21.50;99.90;;;;;;5016794;28;20220;-48
2021/08/14 10:11:31;;;;;;;8.07;3.43;;;21.50;99.90;;;;;;5022360;28;20204;-44
2021/08/14 10:13:58;;;;;;;9.53;3.70;;;21.60;99.90;;;;;;5015003;28;20207;-46
2021/08/14 10:16:26;;;;;;;9.00;2.65;;;21.60;99.90;;;;;;5013997;28;20235;-45
2021/08/14 10:18:54;;;;;;;6.70;2.87;;;21.60;99.90;;;;;;5010350;28;20228;-47
2021/08/14 10:21:21;;;;;;;7.00;2.90;;;21.60;99.90;;;;;;5020342;28;20200;-46
2021/08/14 10:23:47;;;;;;;8.57;3.80;;;21.60;99.90;;;;;;5019251;28;20201;-49
2021/08/14 10:26:17;;;;;;;7.00;2.83;;;21.60;99.90;;;;;;5007930;28;20204;-48
2021/08/14 10:28:46;;;;;;;7.00;2.80;;;21.70;99.90;;;;;;5024407;28;20225;-45
2021/08/14 10:31:45;;;;;;;8.83;2.83;;;21.70;99.90;;;;;;5003554;28;20851;-45
2021/08/14 10:34:29;;;;;;;7.77;3.33;;;21.60;99.90;;;;;;5008925;28;20225;-45
2021/08/14 10:36:56;;;;;;;7.43;2.87;;;21.60;99.90;;;;;;5011705;28;20251;-45
2021/08/14 10:39:24;;;;;;;8.93;3.20;;;21.60;99.90;;;;;;5016601;28;20243;-46
2021/08/14 10:41:53;;;;;;;8.20;3.23;;;21.70;99.90;;;;;;5015894;28;20215;-46
2021/08/14 10:44:46;;;;;;;4.37;2.70;;;21.70;99.90;;;;;;5021286;28;20200;-49
2021/08/14 10:47:44;;;;;;;7.05;2.78;;;21.80;99.90;;;;;;5001646;28;20575;-47
2021/08/14 10:50:53;;;;;;;6.35;2.90;;;21.80;99.90;;;;;;5019145;28;20251;-51
2021/08/14 10:53:22;;;;;;;6.77;2.87;;;21.80;99.90;;;;;;5025264;28;20203;-43
2021/08/14 10:55:51;;;;;;;8.32;3.15;;;21.70;99.90;;;;;;5017876;28;20200;-43
2021/08/14 10:58:20;;;;;;;9.60;3.00;;;21.60;99.90;;;;;;5020810;28;20228;-45
2021/08/14 11:00:46;;;;;;;7.65;2.95;;;21.60;99.90;;;;;;5006196;28;20212;-49
2021/08/14 11:03:15;;;;;;;7.30;3.35;;;21.60;99.90;;;;;;5020604;28;20227;-44
2021/08/14 11:05:45;;;;;;;5.97;2.75;;;21.50;99.90;;;;;;5013658;28;20631;-50
2021/08/14 11:08:31;;;;;;;8.00;2.93;;;21.50;99.90;;;;;;5018635;28;20228;-43
2021/08/14 11:10:59;;;;;;;9.57;3.47;;;21.60;99.90;;;;;;5014533;28;20199;-47
2021/08/14 11:14:07;;;;;;;8.77;2.97;;;21.60;99.90;;;;;;5019610;28;20238;-49
2021/08/14 11:16:57;;;;;;;6.40;2.63;;;21.80;99.90;;;;;;5010469;28;20195;-51
2021/08/14 11:19:58;;;;;;;6.28;2.92;;;21.90;99.90;;;;;;5016461;28;20239;-47
2021/08/14 11:22:30;;;;;;;8.82;3.83;;;22.00;99.90;;;;;;4954502;28;20695;-46
2021/08/14 11:25:00;;;;;;;8.60;3.13;;;22.00;99.90;;;;;;4956639;28;20983;-45
2021/08/14 11:27:29;;;;;;;4.82;2.60;;;22.10;99.90;;;;;;4992443;28;20208;-48
2021/08/14 11:29:57;;;;;;;6.90;3.30;;;;;;;;;;5011231;28;20212;-45
2021/08/14 11:32:25;;;;;;;9.73;3.33;;;22.00;99.90;;;;;;5006519;28;20212;-47
2021/08/14 11:34:52;;;;;;;6.82;2.95;;;22.20;99.90;;;;;;5017449;28;20199;-49
2021/08/14 11:37:21;;;;;;;10.05;3.35;;;22.20;99.90;;;;;;5023650;28;20315;-45
2021/08/14 11:39:48;;;;;;;11.18;3.60;;;22.30;99.90;;;;;;5014963;28;20216;-44
2021/08/14 11:42:14;;;;;;;6.53;3.08;;;22.50;99.90;;;;;;5024795;28;20212;-44
2021/08/14 11:44:41;;;;;;;7.95;2.97;;;22.60;99.90;;;;;;5016339;28;20192;-44
2021/08/14 11:47:11;;;;;;;5.60;2.53;;;22.60;99.90;;;;;;5022002;28;20565;-45
2021/08/14 11:49:55;;;;;;;5.90;2.40;;;22.70;99.90;;;;;;4992200;28;20253;-46
2021/08/14 11:52:25;;;;;;;8.75;2.75;;;22.60;99.90;;;;;;5015878;28;20207;-47
2021/08/14 11:55:00;;;;;;;6.82;3.17;;;22.70;99.90;;;;;;5012175;28;20215;-44
2021/08/14 11:57:32;;;;;;;9.00;2.90;;;22.50;99.90;;;;;;5019581;28;20600;-44
2021/08/14 11:59:59;;;;;;;11.90;3.67;;;22.40;99.90;;;;;;5015163;28;20254;-44
2021/08/14 12:02:27;;;;;;;5.03;3.05;;;22.40;99.90;;;;;;5019246;28;20234;-44
2021/08/14 12:04:54;;;;;;;10.40;3.50;;;22.30;99.90;;;;;;5002033;28;20215;-44
2021/08/14 12:07:21;;;;;;;9.15;3.28;;;22.30;99.90;;;;;;5020356;28;20556;-44
2021/08/14 12:09:51;;;;;;;9.35;3.22;;;22.40;99.90;;;;;;5015294;28;20333;-43
2021/08/14 12:12:19;;;;;;;8.32;3.80;;;22.50;99.90;;;;;;5020938;28;20566;-44
2021/08/14 12:14:46;;;;;;;7.32;2.75;;;22.50;99.90;;;;;;5017813;28;20330;-45
2021/08/14 12:17:12;;;;;;;8.25;3.80;;;22.50;99.90;;;;;;5010992;28;20215;-44
2021/08/14 12:19:48;;;;;;;7.03;2.78;;;22.50;99.90;;;;;;4997235;28;20231;-44
2021/08/14 12:22:16;;;;;;;8.02;2.88;;;22.40;99.90;;;;;;5020851;28;20199;-43
2021/08/14 12:24:44;;;;;;;5.90;2.97;;;22.50;99.90;;;;;;5018785;28;20334;-49
2021/08/14 12:27:30;;;;;;;4.90;2.50;;;22.40;99.90;;;;;;5016779;28;20208;-46
2021/08/14 12:30:16;;;;;;;8.43;2.40;;;22.40;99.90;;;;;;5012287;28;20299;-48
2021/08/14 12:32:43;;;;;;;10.32;3.40;;;22.20;99.90;;;;;;5013628;28;20200;-43
2021/08/14 12:35:18;;;;;;;6.43;2.97;;;22.20;99.90;;;;;;4999969;28;20200;-45
2021/08/14 12:37:45;;;;;;;4.55;2.58;;;22.20;99.90;;;;;;5020247;28;20838;-44
2021/08/14 12:40:13;;;;;;;7.00;2.60;;;22.30;99.90;;;;;;5018839;28;20235;-45
2021/08/14 12:42:41;;;;;;;6.50;2.85;;;22.30;99.90;;;;;;5014435;28;20203;-43
2021/08/14 12:45:19;;;;;;;6.90;2.92;;;22.30;99.90;;;;;;5018120;28;20204;-42
2021/08/14 12:47:48;;;;;;;7.90;2.83;;;22.30;99.90;;;;;;5014020;28;20942;-43
2021/08/14 12:50:18;;;;;;;7.72;2.95;;;22.30;99.90;;;;;;5010276;28;20235;-44